Time;durP1;ratioP1;P1;durP2;ratioP2;P2;SDS_P1;SDS_P2;PMS_P1;PMS_P2;Temp;Humidity;BMP_temperature;BMP_pressure;BME280_temperature;BME280_humidity;BME280_pressure;Samples;Min_cycle;Max_cycle;Signal;HPM_P1;HPM_P2
2021/12/11 00:00:38;40725.00;0.14;71.14;0.00;0.00;0.62;;;;;7.90;1.00;;;;;;2245287;61;987;-87
2021/12/11 00:03:12;22532.00;0.08;39.65;0.00;0.00;0.62;;;;;7.80;1.00;;;;;;2251949;61;1065;-87
2021/12/11 00:05:41;49413.00;0.16;86.17;0.00;0.00;0.62;;;;;7.60;1.00;;;;;;2243909;61;942;-87
2021/12/11 00:08:10;45005.00;0.15;78.55;0.00;0.00;0.62;;;;;7.70;1.00;;;;;;2243910;61;2014;-87
2021/12/11 00:10:44;35096.00;0.12;61.40;0.00;0.00;0.62;;;;;7.50;1.00;;;;;;2243862;61;944;-87
2021/12/11 00:13:16;25974.00;0.09;45.61;0.00;0.00;0.62;;;;;8.00;1.00;;;;;;2247353;61;1000;-88
2021/12/11 00:15:47;198948.00;0.66;344.11;0.00;0.00;0.62;;;;;8.10;1.00;;;;;;2249293;61;1054;-87
2021/12/11 00:18:19;71950.00;0.24;125.13;0.00;0.00;0.62;;;;;7.80;1.00;;;;;;2255844;61;1320;-87
2021/12/11 00:20:53;8626.00;0.03;15.57;0.00;0.00;0.62;;;;;7.30;1.00;;;;;;2255778;61;1716;-88
2021/12/11 00:23:24;67134.00;0.22;116.81;0.00;0.00;0.62;;;;;7.50;1.00;;;;;;2252529;61;1034;-88
2021/12/11 00:25:53;54776.00;0.18;95.45;0.00;0.00;0.62;;;;;7.90;1.00;;;;;;2252183;61;1003;-87
2021/12/11 00:28:20;48974.00;0.16;85.41;0.00;0.00;0.62;;;;;7.60;1.00;;;;;;2255673;61;1941;-87
2021/12/11 00:30:48;154221.00;0.51;267.08;0.00;0.00;0.62;;;;;7.40;1.00;;;;;;2258630;61;984;-87
2021/12/11 00:33:19;125555.00;0.42;217.66;0.00;0.00;0.62;;;;;7.60;1.00;;;;;;2260543;61;1072;-88
2021/12/11 00:35:47;49899.00;0.17;87.01;0.00;0.00;0.62;;;;;7.80;1.00;;;;;;2248553;61;1080;-88
2021/12/11 00:38:17;136697.00;0.46;236.88;0.00;0.00;0.62;;;;;7.90;1.00;;;;;;2248580;61;1448;-89
2021/12/11 00:40:47;42745.00;0.14;74.64;0.00;0.00;0.62;;;;;7.80;1.00;;;;;;2248573;61;1064;-88
2021/12/11 00:43:20;62139.00;0.21;108.17;0.00;0.00;0.62;;;;;7.30;1.00;;;;;;2249403;61;1017;-88
2021/12/11 00:45:49;59033.00;0.20;102.81;0.00;0.00;0.62;;;;;7.30;1.00;;;;;;2252538;61;1155;-87
2021/12/11 00:48:22;104364.00;0.35;181.10;0.00;0.00;0.62;;;;;7.60;1.00;;;;;;2252417;61;2088;-88
2021/12/11 00:50:53;55892.00;0.19;97.37;0.00;0.00;0.62;;;;;7.70;1.00;;;;;;2240540;61;1052;-88
2021/12/11 00:53:24;36072.00;0.12;63.09;0.00;0.00;0.62;;;;;7.60;1.00;;;;;;2243955;61;1063;-88
2021/12/11 00:55:54;120666.00;0.40;209.23;0.00;0.00;0.62;;;;;8.00;1.00;;;;;;2256307;61;1001;-88
2021/12/11 00:58:25;25252.00;0.08;44.36;0.00;0.00;0.62;;;;;8.10;1.00;;;;;;2253082;61;1473;-88
2021/12/11 01:00:56;42663.00;0.14;74.50;0.00;0.00;0.62;;;;;7.90;1.00;;;;;;2256459;61;1021;-87
2021/12/11 01:03:28;57727.00;0.19;100.55;0.00;0.00;0.62;;;;;7.70;1.00;;;;;;2256505;61;1164;-88
2021/12/11 01:05:58;32466.00;0.11;56.85;0.00;0.00;0.62;;;;;7.90;1.00;;;;;;2249807;61;955;-87
2021/12/11 01:08:31;0.00;0.00;0.62;0.00;0.00;0.62;;;;;8.30;1.00;;;;;;2260068;61;1932;-89
2021/12/11 01:11:06;144973.00;0.48;251.14;16958.00;0.06;30.00;;;;;8.50;1.00;;;;;;2268885;61;1107;-88
2021/12/11 01:13:53;38874.00;0.13;67.94;0.00;0.00;0.62;;;;;8.60;1.00;;;;;;2268963;61;1032;-88
2021/12/11 01:16:21;46132.00;0.15;80.50;0.00;0.00;0.62;;;;;8.50;1.00;;;;;;2268811;61;1452;-89
2021/12/11 01:18:51;15637.00;0.05;27.71;0.00;0.00;0.62;;;;;8.70;1.00;;;;;;2258583;61;1021;-89
2021/12/11 01:21:32;168366.00;0.56;291.45;0.00;0.00;0.62;;;;;8.80;1.00;;;;;;2268895;61;1037;-88
2021/12/11 01:24:14;19779.00;0.07;34.89;0.00;0.00;0.62;;;;;9.00;1.00;;;;;;2258578;61;942;-88
2021/12/11 01:26:46;8040.00;0.03;14.55;0.00;0.00;0.62;;;;;8.70;1.00;;;;;;2256298;61;2001;-88
2021/12/11 01:29:17;25466.00;0.08;44.73;0.00;0.00;0.62;;;;;8.20;1.00;;;;;;2256404;61;1035;-89
2021/12/11 01:31:45;99854.00;0.33;173.32;0.00;0.00;0.62;;;;;8.10;1.00;;;;;;2256356;61;1710;-88
2021/12/11 01:34:12;52979.00;0.18;92.34;0.00;0.00;0.62;;;;;7.90;1.00;;;;;;2256376;61;962;-88
2021/12/11 01:36:39;57837.00;0.19;100.74;0.00;0.00;0.62;;;;;8.40;1.00;;;;;;2256246;61;1323;-88
2021/12/11 01:39:14;27863.00;0.09;48.88;0.00;0.00;0.62;;;;;8.30;1.00;;;;;;2256431;61;1074;-88
2021/12/11 01:41:44;30420.00;0.10;53.31;0.00;0.00;0.62;;;;;8.50;1.00;;;;;;2256376;61;1009;-88
2021/12/11 01:44:18;19702.00;0.07;34.75;0.00;0.00;0.62;;;;;9.00;1.00;;;;;;2259443;61;1088;-87
2021/12/11 01:46:46;15400.00;0.05;27.30;0.00;0.00;0.62;;;;;9.10;1.00;;;;;;2268747;61;2018;-89
2021/12/11 01:49:16;222654.00;0.74;384.91;35505.00;0.12;62.11;;;;;8.90;1.00;;;;;;2268495;61;1051;-89
2021/12/11 01:51:48;558507.00;1.86;962.63;179821.00;0.60;311.18;;;;;8.70;1.00;;;;;;2268770;61;1874;-87
2021/12/11 01:54:21;265004.00;0.88;457.75;0.00;0.00;0.62;;;;;8.40;1.00;;;;;;2268631;61;1096;-88
2021/12/11 01:56:58;28591.00;0.10;50.14;0.00;0.00;0.62;;;;;8.40;1.00;;;;;;2261711;61;1350;-87
2021/12/11 01:59:30;11147.00;0.04;19.94;0.00;0.00;0.62;;;;;8.70;1.00;;;;;;2268594;61;1624;-88
2021/12/11 02:02:03;206937.00;0.69;357.86;99971.00;0.33;173.52;;;;;9.10;1.00;;;;;;2268747;61;1053;-88
2021/12/11 02:04:33;240833.00;0.80;416.18;93439.00;0.31;162.25;;;;;8.90;1.00;;;;;;2268720;61;1233;-89
2021/12/11 02:07:05;210896.00;0.70;364.68;88334.00;0.29;153.43;;;;;9.30;1.00;;;;;;2260957;61;1908;-86
2021/12/11 02:09:37;219981.00;0.73;380.31;92551.00;0.31;160.71;;;;;9.70;1.00;;;;;;2256234;61;938;-87
2021/12/11 02:12:09;230641.00;0.77;398.65;89852.00;0.30;156.05;;;;;9.60;1.00;;;;;;2256252;61;1041;-87
2021/12/11 02:14:45;227958.00;0.76;394.04;98764.00;0.33;171.44;;;;;9.60;1.00;;;;;;2256141;61;1040;-87
2021/12/11 02:17:19;125564160.00;418.55;80205984.00;98455.00;0.33;170.90;;;;;9.60;1.00;;;;;;2255758;61;1858;-88
2021/12/11 02:19:47;258342.00;0.86;446.30;93577.00;0.31;162.48;;;;;9.80;1.00;;;;;;2252841;61;1005;-86
2021/12/11 02:22:19;32745.00;0.11;57.33;0.00;0.00;0.62;;;;;9.80;1.00;;;;;;2256250;61;1149;-87
2021/12/11 02:24:49;37811.00;0.13;66.10;0.00;0.00;0.62;;;;;9.50;1.00;;;;;;2249597;61;1000;-87
2021/12/11 02:27:20;72107.00;0.24;125.40;0.00;0.00;0.62;;;;;9.30;1.00;;;;;;2252335;61;1998;-88
2021/12/11 02:29:51;35232.00;0.12;61.64;0.00;0.00;0.62;;;;;9.50;1.00;;;;;;2260176;61;1012;-87
2021/12/11 02:32:27;0.00;0.00;0.62;0.00;0.00;0.62;;;;;9.70;1.00;;;;;;2250182;61;1010;-87
2021/12/11 02:34:58;16695.00;0.06;29.55;0.00;0.00;0.62;;;;;9.70;1.00;;;;;;2253492;61;946;-86
2021/12/11 02:37:35;113266.00;0.38;196.47;0.00;0.00;0.62;;;;;9.50;1.00;;;;;;2260130;61;1406;-88
2021/12/11 02:40:12;123273.00;0.41;213.73;0.00;0.00;0.62;;;;;9.60;1.00;;;;;;2248104;61;942;-88
2021/12/11 02:42:43;99110.00;0.33;172.04;0.00;0.00;0.62;;;;;9.40;1.00;;;;;;2247894;61;1042;-86
2021/12/11 02:45:17;28842.00;0.10;50.58;0.00;0.00;0.62;;;;;9.40;1.00;;;;;;2252710;61;1007;-86
2021/12/11 02:47:48;28003.00;0.09;49.13;0.00;0.00;0.62;;;;;9.60;1.00;;;;;;2247566;61;2005;-86
2021/12/11 02:50:23;16429.00;0.05;29.09;0.00;0.00;0.62;;;;;9.70;1.00;;;;;;2248128;61;2065;-86
2021/12/11 02:52:57;51192.00;0.17;89.25;0.00;0.00;0.62;;;;;9.70;1.00;;;;;;2244612;61;975;-87
2021/12/11 02:55:34;43368.00;0.14;75.72;0.00;0.00;0.62;;;;;9.10;1.00;;;;;;2248113;61;1030;-87
2021/12/11 02:58:04;27001.00;0.09;47.39;0.00;0.00;0.62;;;;;9.30;1.00;;;;;;2253582;61;1345;-87
2021/12/11 03:00:36;25777.00;0.09;45.27;0.00;0.00;0.62;;;;;9.40;1.00;;;;;;2260107;61;1065;-87
2021/12/11 03:03:08;0.00;0.00;0.62;0.00;0.00;0.62;;;;;9.40;1.00;;;;;;2259508;61;1137;-88
2021/12/11 03:05:45;147622.00;0.49;255.71;0.00;0.00;0.62;;;;;9.50;1.00;;;;;;2263394;61;1087;-87
2021/12/11 03:08:16;225554.00;0.75;389.90;0.00;0.00;0.62;;;;;9.50;1.00;;;;;;2255852;61;1911;-86
2021/12/11 03:10:47;58752.00;0.20;102.32;0.00;0.00;0.62;;;;;9.30;1.00;;;;;;2255922;61;1030;-87
2021/12/11 03:13:14;18554.00;0.06;32.77;0.00;0.00;0.62;;;;;8.90;1.00;;;;;;2252666;61;968;-87
2021/12/11 03:15:41;52817.00;0.18;92.06;0.00;0.00;0.62;;;;;8.20;1.00;;;;;;2252229;61;1021;-86
2021/12/11 03:18:09;75605.00;0.25;131.44;0.00;0.00;0.62;;;;;7.90;1.00;;;;;;2252642;61;1346;-87
2021/12/11 03:20:38;109933.00;0.37;190.71;0.00;0.00;0.62;;;;;8.20;1.00;;;;;;2252427;61;1027;-88
2021/12/11 03:23:07;9382.00;0.03;16.88;0.00;0.00;0.62;;;;;8.70;1.00;;;;;;2255541;61;1025;-88
2021/12/11 03:25:36;13641.00;0.05;24.26;0.00;0.00;0.62;;;;;8.50;1.00;;;;;;2254959;61;1005;-87
2021/12/11 03:28:05;43095.00;0.14;75.24;0.00;0.00;0.62;;;;;8.70;1.00;;;;;;2268336;61;2002;-87
2021/12/11 03:30:37;27903.00;0.09;48.95;0.00;0.00;0.62;;;;;8.70;1.00;;;;;;2258105;61;1009;-87
2021/12/11 03:33:10;51628.00;0.17;90.00;0.00;0.00;0.62;;;;;8.90;1.00;;;;;;2255779;61;1147;-87
2021/12/11 03:35:38;26542.00;0.09;46.60;0.00;0.00;0.62;;;;;8.80;1.00;;;;;;2255990;61;955;-89
2021/12/11 03:38:06;147663.00;0.49;255.78;8362.00;0.03;15.11;;;;;8.90;1.00;;;;;;2255764;61;1472;-88
2021/12/11 03:40:35;13312.00;0.04;23.69;0.00;0.00;0.62;;;;;9.00;1.00;;;;;;2256009;61;1016;-88
2021/12/11 03:43:04;109859.00;0.37;190.59;0.00;0.00;0.62;;;;;9.10;1.00;;;;;;2245849;61;1060;-89
2021/12/11 03:45:35;64977.00;0.22;113.08;0.00;0.00;0.62;;;;;9.30;1.00;;;;;;2255980;61;1000;-88
2021/12/11 03:48:09;144698.00;0.48;250.67;29034.00;0.10;50.91;;;;;8.90;1.00;;;;;;2255840;61;1911;-89
2021/12/11 03:50:37;65508.00;0.22;114.00;0.00;0.00;0.62;;;;;8.40;1.00;;;;;;2250524;61;1036;-89
2021/12/11 03:53:05;39601.00;0.13;69.20;0.00;0.00;0.62;;;;;8.20;1.00;;;;;;2259994;61;974;-88
2021/12/11 03:55:39;152559.00;0.51;264.22;0.00;0.00;0.62;;;;;8.60;1.00;;;;;;2250021;61;1026;-88
2021/12/11 03:58:08;40702.00;0.14;71.10;0.00;0.00;0.62;;;;;8.80;1.00;;;;;;2251876;61;1445;-89
2021/12/11 04:00:39;19521.00;0.07;34.44;0.00;0.00;0.62;;;;;8.90;1.00;;;;;;2252440;61;1009;-89
2021/12/11 04:03:11;41023.00;0.14;71.66;0.00;0.00;0.62;;;;;9.00;1.00;;;;;;2252684;61;1036;-88
2021/12/11 04:05:42;28824.00;0.10;50.55;0.00;0.00;0.62;;;;;8.90;1.00;;;;;;2252517;61;1032;-88
2021/12/11 04:08:13;363978.00;1.21;627.89;148356.00;0.49;256.97;;;;;9.00;1.00;;;;;;2254247;61;1918;-88
2021/12/11 04:10:41;222402.00;0.74;384.48;92768.00;0.31;161.09;;;;;9.00;1.00;;;;;;2260605;61;1013;-89
2021/12/11 04:13:13;203273.00;0.68;351.56;98115.00;0.33;170.32;;;;;9.10;1.00;;;;;;2260004;61;1115;-88
2021/12/11 04:15:42;435339.00;1.45;750.57;97749.00;0.33;169.69;;;;;9.20;1.00;;;;;;2263126;61;1009;-84
2021/12/11 04:18:10;245544.00;0.82;424.29;90338.00;0.30;156.89;;;;;9.30;1.00;;;;;;2268844;61;1444;-89
2021/12/11 04:20:42;78810.00;0.26;136.98;0.00;0.00;0.62;;;;;9.10;1.00;;;;;;2269142;61;953;-88
2021/12/11 04:23:12;190059.00;0.63;328.81;99988.00;0.33;173.55;;;;;9.00;1.00;;;;;;2256424;61;942;-88
2021/12/11 04:25:42;249610.00;0.83;431.28;96658.00;0.32;167.80;;;;;9.20;1.00;;;;;;2253207;61;1011;-88
2021/12/11 04:28:10;272672.00;0.91;470.94;90128.00;0.30;156.53;;;;;9.20;1.00;;;;;;2256346;61;1916;-88
2021/12/11 04:30:42;300014.00;1.00;517.94;95941.00;0.32;166.57;;;;;9.00;1.00;;;;;;2249988;61;1040;-89
2021/12/11 04:33:09;425308.00;1.42;733.32;101026.00;0.34;175.34;;;;;8.70;1.00;;;;;;2249882;61;907;-85
2021/12/11 04:35:41;117692792.00;392.31;66036036.00;102960.00;0.34;178.68;;;;;7.80;1.00;;;;;;2255898;61;1633;-88
2021/12/11 04:38:09;447066.00;1.49;770.74;112993.00;0.38;195.99;;;;;7.90;1.00;;;;;;2256547;61;1468;-88
2021/12/11 04:40:56;280879.00;0.94;485.05;104667.00;0.35;181.63;;;;;8.50;1.00;;;;;;2251247;61;1055;-86
2021/12/11 04:43:28;893091.00;2.98;1543.99;179305.00;0.60;310.29;;;;;9.10;1.00;;;;;;2260438;61;1661;-87
2021/12/11 04:46:04;123329712.00;411.10;75995960.00;131223.00;0.44;227.44;;;;;9.30;1.00;;;;;;2260248;61;1042;-86
2021/12/11 04:48:41;762801.00;2.54;1316.32;24851.00;0.08;43.67;;;;;9.70;1.00;;;;;;2260496;61;1915;-88
2021/12/11 04:51:16;1041536.00;3.47;1806.18;51120.00;0.17;89.12;;;;;9.70;1.00;;;;;;2260302;61;1072;-87
2021/12/11 04:53:56;799206.00;2.66;1379.74;77798.00;0.26;135.23;;;;;9.70;1.00;;;;;;2252459;61;1080;-87
2021/12/11 04:56:54;1090739.00;3.64;1893.87;112608.00;0.38;195.33;;;;;9.70;1.00;;;;;;2252180;61;1322;-86
2021/12/11 04:59:39;320307.00;1.07;552.83;0.00;0.00;0.62;;;;;9.90;1.00;;;;;;2256292;61;983;-87
2021/12/11 05:02:31;861702.00;2.87;1488.95;66806.00;0.22;116.24;;;;;10.00;1.00;;;;;;2260375;61;969;-86
2021/12/11 05:05:10;988336.00;3.29;1711.82;105794.00;0.35;183.57;;;;;10.00;1.00;;;;;;2260328;61;1052;-87
2021/12/11 05:07:43;826952.00;2.76;1428.17;141724.00;0.47;245.54;;;;;10.10;1.00;;;;;;2256292;61;1997;-87
2021/12/11 05:10:19;317684.00;1.06;548.32;90002.00;0.30;156.31;;;;;10.20;1.00;;;;;;2255835;61;1075;-87
2021/12/11 05:12:51;0.00;0.00;0.62;0.00;0.00;0.62;;;;;10.20;1.00;;;;;;2255921;61;1057;-87
2021/12/11 05:15:22;1939.00;0.01;3.98;0.00;0.00;0.62;;;;;10.50;1.00;;;;;;2249514;61;1007;-86
2021/12/11 05:17:50;225117.00;0.75;389.15;69807.00;0.23;121.43;;;;;10.80;1.00;;;;;;2256360;61;1467;-87
2021/12/11 05:20:20;56274.00;0.19;98.04;0.00;0.00;0.62;;;;;10.90;1.00;;;;;;2256128;61;1022;-86
2021/12/11 05:22:47;54512.00;0.18;94.99;0.00;0.00;0.62;;;;;11.20;1.00;;;;;;2249753;61;944;-87
2021/12/11 05:25:16;186179.00;0.62;322.13;0.00;0.00;0.62;;;;;11.30;1.00;;;;;;2250704;61;962;-87
2021/12/11 05:27:46;9947.00;0.03;17.86;0.00;0.00;0.62;;;;;11.30;1.00;;;;;;2258870;61;1916;-85
2021/12/11 05:30:20;8995.00;0.03;16.21;0.00;0.00;0.62;;;;;11.40;1.00;;;;;;2256346;61;1037;-85
2021/12/11 05:32:48;40791.00;0.14;71.26;0.00;0.00;0.62;;;;;11.40;1.00;;;;;;2253045;61;976;-87
2021/12/11 05:35:18;15386.00;0.05;27.28;0.00;0.00;0.62;;;;;11.30;1.00;;;;;;2246515;61;945;-86
2021/12/11 05:37:45;0.00;0.00;0.62;0.00;0.00;0.62;;;;;11.40;1.00;;;;;;2256163;61;1303;-86
2021/12/11 05:40:15;116637.00;0.39;202.28;0.00;0.00;0.62;;;;;11.40;1.00;;;;;;2252960;61;970;-86
2021/12/11 05:42:42;824443.00;2.75;1423.79;0.00;0.00;0.62;;;;;11.10;1.00;;;;;;2259097;61;997;-86
2021/12/11 05:45:10;406322.00;1.35;700.67;0.00;0.00;0.62;;;;;11.20;1.00;;;;;;2261711;61;1025;-85
2021/12/11 05:47:38;21379.00;0.07;37.66;0.00;0.00;0.62;;;;;11.00;1.00;;;;;;2261648;61;1479;-87
2021/12/11 05:50:07;58955.00;0.20;102.67;0.00;0.00;0.62;;;;;10.50;1.00;;;;;;2258400;61;2013;-86
2021/12/11 05:52:35;96554.00;0.32;167.62;0.00;0.00;0.62;;;;;10.40;1.00;;;;;;2268839;61;997;-86
2021/12/11 05:55:02;15025.00;0.05;26.65;0.00;0.00;0.62;;;;;10.60;1.00;;;;;;2268817;61;1010;-86
2021/12/11 05:57:29;22659.00;0.08;39.87;0.00;0.00;0.62;;;;;10.00;1.00;;;;;;2268445;61;1305;-86
2021/12/11 05:59:56;9745.00;0.03;17.51;0.00;0.00;0.62;;;;;9.80;1.00;;;;;;2256153;61;1045;-85
2021/12/11 06:02:26;19655.00;0.07;34.67;0.00;0.00;0.62;;;;;9.60;1.00;;;;;;2255523;61;1007;-86
2021/12/11 06:04:58;25462.00;0.08;44.73;0.00;0.00;0.62;;;;;10.00;1.00;;;;;;2256178;61;1048;-85
2021/12/11 06:07:29;0.00;0.00;0.62;0.00;0.00;0.62;;;;;10.40;1.00;;;;;;2252112;61;1387;-86
2021/12/11 06:09:59;65541.00;0.22;114.05;0.00;0.00;0.62;;;;;10.60;1.00;;;;;;2252063;61;2011;-87
2021/12/11 06:12:27;12232.00;0.04;21.82;0.00;0.00;0.62;;;;;11.10;1.00;;;;;;2248835;61;1021;-87
2021/12/11 06:14:55;91757.00;0.31;159.34;0.00;0.00;0.62;;;;;10.70;1.00;;;;;;2252092;61;1155;-87
2021/12/11 06:17:25;13927.00;0.05;24.75;0.00;0.00;0.62;;;;;10.70;1.00;;;;;;2254009;61;1348;-86
2021/12/11 06:19:53;7877.00;0.03;14.27;0.00;0.00;0.62;;;;;10.60;1.00;;;;;;2260136;61;1136;-86
2021/12/11 06:22:25;29794.00;0.10;52.23;0.00;0.00;0.62;;;;;10.20;1.00;;;;;;2253310;61;1037;-86
2021/12/11 06:24:56;0.00;0.00;0.62;0.00;0.00;0.62;;;;;10.40;1.00;;;;;;2253907;61;935;-86
2021/12/11 06:27:25;0.00;0.00;0.62;0.00;0.00;0.62;;;;;10.60;1.00;;;;;;2253414;61;1381;-86
2021/12/11 06:29:52;21688.00;0.07;38.19;0.00;0.00;0.62;;;;;10.80;1.00;;;;;;2250210;61;2009;-85
2021/12/11 06:32:21;12249.00;0.04;21.85;0.00;0.00;0.62;;;;;10.80;1.00;;;;;;2260065;61;976;-86
2021/12/11 06:34:48;0.00;0.00;0.62;0.00;0.00;0.62;;;;;10.80;1.00;;;;;;2260081;61;1169;-86
2021/12/11 06:37:16;2450.00;0.01;4.87;0.00;0.00;0.62;;;;;10.80;1.00;;;;;;2259994;61;1309;-87
2021/12/11 06:39:44;27405.00;0.09;48.09;0.00;0.00;0.62;;;;;10.50;1.00;;;;;;2260039;61;1099;-86
2021/12/11 06:42:11;15303.00;0.05;27.14;0.00;0.00;0.62;;;;;10.50;1.00;;;;;;2261660;61;1068;-87
2021/12/11 06:44:39;0.00;0.00;0.62;0.00;0.00;0.62;;;;;10.70;1.00;;;;;;2261465;61;986;-86
2021/12/11 06:47:10;7114.00;0.02;12.95;0.00;0.00;0.62;;;;;10.50;1.00;;;;;;2268406;61;1424;-86
2021/12/11 06:49:41;71444.00;0.24;124.26;0.00;0.00;0.62;;;;;10.10;1.00;;;;;;2268361;61;1973;-86
2021/12/11 06:52:12;15212.00;0.05;26.98;0.00;0.00;0.62;;;;;9.70;1.00;;;;;;2268344;61;1089;-87
2021/12/11 06:54:40;24885.00;0.08;43.73;0.00;0.00;0.62;;;;;9.50;1.00;;;;;;2268183;61;1775;-88
2021/12/11 06:57:09;25483.00;0.08;44.76;0.00;0.00;0.62;;;;;9.80;1.00;;;;;;2257987;61;1286;-86
2021/12/11 06:59:38;41890.00;0.14;73.16;0.00;0.00;0.62;;;;;9.90;1.00;;;;;;2268223;61;1313;-87
2021/12/11 07:02:11;79218.00;0.26;137.69;0.00;0.00;0.62;;;;;10.10;1.00;;;;;;2259738;61;996;-87
2021/12/11 07:04:38;76190.00;0.25;132.46;0.00;0.00;0.62;;;;;10.60;1.00;;;;;;2249885;61;1035;-87
2021/12/11 07:07:05;11171.00;0.04;19.98;0.00;0.00;0.62;;;;;10.80;1.00;;;;;;2251925;61;1356;-87
2021/12/11 07:09:33;67665.00;0.23;117.73;0.00;0.00;0.62;;;;;10.90;1.00;;;;;;2251802;61;2001;-87
2021/12/11 07:12:02;45831.00;0.15;79.98;0.00;0.00;0.62;;;;;10.60;1.00;;;;;;2251959;61;1136;-86
2021/12/11 07:14:32;18740.00;0.06;33.09;0.00;0.00;0.62;;;;;10.60;1.00;;;;;;2251821;61;1709;-86
2021/12/11 07:17:00;7903.00;0.03;14.32;0.00;0.00;0.62;;;;;10.80;1.00;;;;;;2251985;61;1742;-87
2021/12/11 07:19:27;22067.00;0.07;38.85;0.00;0.00;0.62;;;;;10.80;1.00;;;;;;2252472;61;1104;-86
2021/12/11 07:24:32;39687.00;0.13;69.35;0.00;0.00;0.62;;;;;11.00;1.00;;;;;;2274202;60;1378;-86
2021/12/11 07:29:27;54926.00;0.18;95.70;0.00;0.00;0.62;;;;;11.10;1.00;;;;;;2273854;61;1977;-85
2021/12/11 07:31:55;44725.00;0.15;78.06;0.00;0.00;0.62;;;;;10.50;1.00;;;;;;2272341;60;1470;-85
2021/12/11 07:34:22;21138.00;0.07;37.24;0.00;0.00;0.62;;;;;9.60;1.00;;;;;;2272344;60;1094;-86
2021/12/11 07:36:51;48229.00;0.16;84.12;0.00;0.00;0.62;;;;;9.30;1.00;;;;;;2272411;60;997;-87
2021/12/11 07:39:21;29501.00;0.10;51.72;0.00;0.00;0.62;;;;;9.60;1.00;;;;;;2272390;60;1116;-86
2021/12/11 07:41:49;92402.00;0.31;160.46;0.00;0.00;0.62;;;;;9.70;1.00;;;;;;2272385;60;1371;-86
2021/12/11 07:44:17;26099.00;0.09;45.83;0.00;0.00;0.62;;;;;10.00;1.00;;;;;;2271936;60;933;-85
2021/12/11 07:46:45;37700.00;0.13;65.91;0.00;0.00;0.62;;;;;10.40;1.00;;;;;;2265314;60;976;-86
2021/12/11 07:49:14;23072.00;0.08;40.59;0.00;0.00;0.62;;;;;10.50;1.00;;;;;;2272355;60;2001;-87
2021/12/11 07:51:41;8390.00;0.03;15.16;0.00;0.00;0.62;;;;;10.70;1.00;;;;;;2272355;60;1365;-86
2021/12/11 07:54:10;18923.00;0.06;33.41;0.00;0.00;0.62;;;;;10.80;1.00;;;;;;2272322;60;1034;-86
2021/12/11 07:56:38;0.00;0.00;0.62;0.00;0.00;0.62;;;;;10.60;1.00;;;;;;2272274;60;983;-87
2021/12/11 07:59:09;0.00;0.00;0.62;0.00;0.00;0.62;;;;;10.80;1.00;;;;;;2272272;60;926;-87
2021/12/11 08:01:41;19479.00;0.06;34.37;0.00;0.00;0.62;;;;;10.90;1.00;;;;;;2267765;61;1386;-87
2021/12/11 13:42:28;124732032.00;415.77;78620416.00;88539.00;0.30;153.78;;;;;8.70;1.00;;;;;;2480707;55;3641;31
2021/12/11 15:20:36;1211839.00;4.04;2111.64;148718.00;0.50;257.60;;;;;8.40;1.00;;;;;;2262857;61;1045;-89
2021/12/11 15:48:21;72822.00;0.24;126.64;0.00;0.00;0.62;;;;;9.00;1.00;;;;;;2266824;61;972;-84
2021/12/11 15:50:51;57884.00;0.19;100.82;0.00;0.00;0.62;;;;;8.60;1.00;;;;;;2260554;61;1932;-87
2021/12/11 15:58:20;50226.00;0.17;87.58;0.00;0.00;0.62;;;;;8.30;1.00;;;;;;2421431;40;3728;31
2021/12/11 16:18:11;164643.00;0.55;285.04;0.00;0.00;0.62;;;;;8.80;1.00;;;;;;2270614;61;1204;-85
2021/12/11 16:28:23;28570.00;0.10;50.11;0.00;0.00;0.62;;;;;8.40;1.00;;;;;;2495100;55;3642;31
2021/12/11 16:33:20;184417.00;0.61;319.10;0.00;0.00;0.62;;;;;8.10;1.00;;;;;;2271086;61;914;-90
2021/12/11 16:35:48;98919.00;0.33;171.71;0.00;0.00;0.62;;;;;8.00;1.00;;;;;;2260699;61;895;-86
2021/12/11 17:28:21;36059.00;0.12;63.07;0.00;0.00;0.62;;;;;7.80;1.00;;;;;;2489378;55;3633;31
2021/12/11 17:33:16;196978.00;0.66;340.72;0.00;0.00;0.62;;;;;7.80;1.00;;;;;;2490407;40;3455;31
2021/12/11 19:15:09;126430.00;0.42;219.17;0.00;0.00;0.62;;;;;9.00;1.00;;;;;;2266923;61;913;-90
2021/12/11 19:20:10;93247.00;0.31;161.91;0.00;0.00;0.62;;;;;9.10;1.00;;;;;;2267327;61;1318;-91
2021/12/11 19:25:06;33578.00;0.11;58.78;0.00;0.00;0.62;;;;;9.20;1.00;;;;;;2498322;55;3622;31
2021/12/11 19:27:36;142163.00;0.47;246.30;13134.00;0.04;23.38;;;;;9.40;1.00;;;;;;2491916;55;3973;31
2021/12/11 19:30:10;146596.00;0.49;253.94;0.00;0.00;0.62;;;;;9.20;1.00;;;;;;2496986;55;4018;31
2021/12/11 19:37:32;29472.00;0.10;51.67;0.00;0.00;0.62;;;;;8.40;1.00;;;;;;2498282;55;3671;31
2021/12/11 19:40:00;167012.00;0.56;289.12;0.00;0.00;0.62;;;;;8.00;1.00;;;;;;2498587;41;3972;31
2021/12/11 19:47:25;0.00;0.00;0.62;0.00;0.00;0.62;;;;;8.50;1.00;;;;;;2497759;55;3584;31
2021/12/11 20:54:04;53991.00;0.18;94.09;0.00;0.00;0.62;;;;;10.40;1.00;;;;;;2499967;55;3572;31
2021/12/11 21:55:54;1159139.00;3.86;2016.52;121763.00;0.41;211.12;;;;;8.40;1.00;;;;;;2267339;61;895;-88
2021/12/11 22:00:53;1391900.00;4.64;2441.31;132970.00;0.44;230.45;;;;;8.60;1.00;;;;;;2267123;61;1361;-87
